sensor_id;sensor_type;location;lat;lon;timestamp;pressure;altitude;pressure_sealevel;temperature;humidity
9415;BME280;4746;35.664;139.738;2024-01-30T00:01:02;101696.22;;;11.63;34.63
9415;BME280;4746;35.664;139.738;2024-01-30T00:03:30;101700.78;;;11.74;34.71
9415;BME280;4746;35.664;139.738;2024-01-30T00:05:57;101705.25;;;11.81;34.45
9415;BME280;4746;35.664;139.738;2024-01-30T00:08:25;101697.66;;;11.85;34.72
9415;BME280;4746;35.664;139.738;2024-01-30T00:10:53;101710.72;;;11.94;34.40
9415;BME280;4746;35.664;139.738;2024-01-30T00:13:20;101706.53;;;11.98;34.33
9415;BME280;4746;35.664;139.738;2024-01-30T00:15:48;101709.28;;;12.05;34.25
9415;BME280;4746;35.664;139.738;2024-01-30T00:18:16;101694.91;;;12.12;34.17
9415;BME280;4746;35.664;139.738;2024-01-30T00:20:43;101693.28;;;12.15;34.13
9415;BME280;4746;35.664;139.738;2024-01-30T00:23:11;101676.16;;;12.16;34.05
9415;BME280;4746;35.664;139.738;2024-01-30T00:25:38;101691.59;;;12.17;34.00
9415;BME280;4746;35.664;139.738;2024-01-30T00:28:06;101683.97;;;12.20;33.90
9415;BME280;4746;35.664;139.738;2024-01-30T00:30:33;101690.91;;;12.24;33.81
9415;BME280;4746;35.664;139.738;2024-01-30T00:33:02;101701.19;;;12.24;33.91
9415;BME280;4746;35.664;139.738;2024-01-30T00:35:31;101700.53;;;12.31;33.60
9415;BME280;4746;35.664;139.738;2024-01-30T00:37:59;101699.69;;;12.32;33.65
9415;BME280;4746;35.664;139.738;2024-01-30T00:40:26;101705.72;;;12.34;33.62
9415;BME280;4746;35.664;139.738;2024-01-30T00:42:54;101689.47;;;12.35;33.69
9415;BME280;4746;35.664;139.738;2024-01-30T00:45:21;101696.34;;;12.36;33.65
9415;BME280;4746;35.664;139.738;2024-01-30T00:47:49;101688.66;;;12.38;33.69
9415;BME280;4746;35.664;139.738;2024-01-30T00:50:16;101688.75;;;12.41;33.40
9415;BME280;4746;35.664;139.738;2024-01-30T00:52:44;101693.38;;;12.55;33.32
9415;BME280;4746;35.664;139.738;2024-01-30T00:55:12;101694.44;;;12.64;33.47
9415;BME280;4746;35.664;139.738;2024-01-30T00:57:41;101699.72;;;12.70;33.15
9415;BME280;4746;35.664;139.738;2024-01-30T01:00:09;101700.63;;;12.74;33.25
9415;BME280;4746;35.664;139.738;2024-01-30T01:02:37;101697.22;;;12.73;32.90
9415;BME280;4746;35.664;139.738;2024-01-30T01:05:06;101695.38;;;12.68;33.17
9415;BME280;4746;35.664;139.738;2024-01-30T01:07:34;101697.31;;;12.78;33.16
9415;BME280;4746;35.664;139.738;2024-01-30T01:10:02;101689.81;;;12.87;33.41
9415;BME280;4746;35.664;139.738;2024-01-30T01:12:30;101697.75;;;12.96;33.09
9415;BME280;4746;35.664;139.738;2024-01-30T01:14:58;101683.19;;;12.98;32.92
9415;BME280;4746;35.664;139.738;2024-01-30T01:17:25;101683.25;;;13.01;32.66
9415;BME280;4746;35.664;139.738;2024-01-30T01:19:53;101683.28;;;13.02;33.04
9415;BME280;4746;35.664;139.738;2024-01-30T01:22:21;101689.34;;;13.04;32.52
9415;BME280;4746;35.664;139.738;2024-01-30T01:24:49;101689.50;;;13.12;32.67
9415;BME280;4746;35.664;139.738;2024-01-30T01:27:17;101686.13;;;13.16;32.27
9415;BME280;4746;35.664;139.738;2024-01-30T01:29:44;101693.03;;;13.17;32.22
9415;BME280;4746;35.664;139.738;2024-01-30T01:32:12;101691.34;;;13.17;32.12
9415;BME280;4746;35.664;139.738;2024-01-30T01:34:40;101686.13;;;13.16;32.21
9415;BME280;4746;35.664;139.738;2024-01-30T01:37:07;101684.47;;;13.18;32.34
9415;BME280;4746;35.664;139.738;2024-01-30T01:39:35;101676.03;;;13.23;31.99
9415;BME280;4746;35.664;139.738;2024-01-30T01:42:02;101669.28;;;13.29;32.04
9415;BME280;4746;35.664;139.738;2024-01-30T01:44:30;101676.31;;;13.39;31.95
9415;BME280;4746;35.664;139.738;2024-01-30T01:46:58;101667.06;;;13.49;32.04
9415;BME280;4746;35.664;139.738;2024-01-30T01:49:27;101665.47;;;13.55;31.76
9415;BME280;4746;35.664;139.738;2024-01-30T01:51:57;101661.41;;;13.69;31.54
9415;BME280;4746;35.664;139.738;2024-01-30T01:54:27;101661.63;;;13.81;31.21
9415;BME280;4746;35.664;139.738;2024-01-30T01:56:56;101655.72;;;13.87;31.00
9415;BME280;4746;35.664;139.738;2024-01-30T01:59:25;101657.63;;;13.98;31.12
9415;BME280;4746;35.664;139.738;2024-01-30T02:01:55;101649.16;;;14.06;31.02
9415;BME280;4746;35.664;139.738;2024-01-30T02:04:23;101637.25;;;14.11;30.44
9415;BME280;4746;35.664;139.738;2024-01-30T02:06:51;101638.22;;;14.18;30.49
9415;BME280;4746;35.664;139.738;2024-01-30T02:09:18;101636.69;;;14.29;30.24
9415;BME280;4746;35.664;139.738;2024-01-30T02:11:46;101629.16;;;14.44;30.03
9415;BME280;4746;35.664;139.738;2024-01-30T02:14:13;101623.28;;;14.54;29.93
9415;BME280;4746;35.664;139.738;2024-01-30T02:16:41;101620.91;;;14.68;29.77
9415;BME280;4746;35.664;139.738;2024-01-30T02:19:08;101619.44;;;14.90;29.51
9415;BME280;4746;35.664;139.738;2024-01-30T02:21:36;101622.25;;;15.06;29.24
9415;BME280;4746;35.664;139.738;2024-01-30T02:24:04;101625.06;;;15.24;29.59
9415;BME280;4746;35.664;139.738;2024-01-30T02:26:32;101615.69;;;15.35;29.29
9415;BME280;4746;35.664;139.738;2024-01-30T02:29:00;101614.09;;;15.46;28.93
9415;BME280;4746;35.664;139.738;2024-01-30T02:31:27;101609.03;;;15.58;28.83
9415;BME280;4746;35.664;139.738;2024-01-30T02:33:55;101591.91;;;15.69;28.35
9415;BME280;4746;35.664;139.738;2024-01-30T02:36:22;101598.00;;;15.80;28.45
9415;BME280;4746;35.664;139.738;2024-01-30T02:38:50;101603.28;;;15.89;28.32
9415;BME280;4746;35.664;139.738;2024-01-30T02:41:17;101591.25;;;15.97;27.82
9415;BME280;4746;35.664;139.738;2024-01-30T02:43:46;101597.41;;;16.13;27.65
9415;BME280;4746;35.664;139.738;2024-01-30T02:46:14;101594.97;;;16.28;27.24
9415;BME280;4746;35.664;139.738;2024-01-30T02:48:41;101579.47;;;16.37;27.13
9415;BME280;4746;35.664;139.738;2024-01-30T02:51:09;101573.47;;;16.41;26.40
9415;BME280;4746;35.664;139.738;2024-01-30T02:53:36;101589.03;;;16.50;26.77
9415;BME280;4746;35.664;139.738;2024-01-30T02:56:04;101583.00;;;16.54;26.58
9415;BME280;4746;35.664;139.738;2024-01-30T02:58:32;101577.03;;;16.67;26.31
9415;BME280;4746;35.664;139.738;2024-01-30T03:01:02;101571.94;;;16.88;26.30
9415;BME280;4746;35.664;139.738;2024-01-30T03:03:30;101568.53;;;17.02;26.14
9415;BME280;4746;35.664;139.738;2024-01-30T03:05:58;101564.28;;;17.27;26.43
9415;BME280;4746;35.664;139.738;2024-01-30T03:08:25;101553.97;;;17.50;26.23
9415;BME280;4746;35.664;139.738;2024-01-30T03:10:53;101550.47;;;17.80;26.21
9415;BME280;4746;35.664;139.738;2024-01-30T03:13:21;101554.78;;;18.09;25.81
9415;BME280;4746;35.664;139.738;2024-01-30T03:15:51;101548.69;;;18.25;25.21
9415;BME280;4746;35.664;139.738;2024-01-30T03:18:19;101542.56;;;18.47;25.74
9415;BME280;4746;35.664;139.738;2024-01-30T03:20:47;101544.22;;;18.67;25.57
9415;BME280;4746;35.664;139.738;2024-01-30T03:23:14;101542.34;;;18.94;24.90
9415;BME280;4746;35.664;139.738;2024-01-30T03:25:42;101538.75;;;19.22;24.76
9415;BME280;4746;35.664;139.738;2024-01-30T03:28:09;101525.47;;;19.56;24.66
9415;BME280;4746;35.664;139.738;2024-01-30T03:30:40;101521.72;;;19.87;24.81
9415;BME280;4746;35.664;139.738;2024-01-30T03:33:08;101525.00;;;20.06;24.56
9415;BME280;4746;35.664;139.738;2024-01-30T03:35:37;101515.97;;;20.38;24.37
9415;BME280;4746;35.664;139.738;2024-01-30T03:38:04;101519.16;;;20.59;23.85
9415;BME280;4746;35.664;139.738;2024-01-30T03:40:32;101521.84;;;20.56;23.58
9415;BME280;4746;35.664;139.738;2024-01-30T03:42:59;101510.31;;;20.77;23.22
9415;BME280;4746;35.664;139.738;2024-01-30T03:45:27;101516.09;;;20.95;22.93
9415;BME280;4746;35.664;139.738;2024-01-30T03:47:54;101506.44;;;21.01;22.73
9415;BME280;4746;35.664;139.738;2024-01-30T03:50:22;101510.75;;;21.04;22.53
9415;BME280;4746;35.664;139.738;2024-01-30T03:52:49;101494.69;;;21.31;21.80
9415;BME280;4746;35.664;139.738;2024-01-30T03:55:17;101498.44;;;21.67;21.06
9415;BME280;4746;35.664;139.738;2024-01-30T03:57:44;101478.91;;;21.89;20.71
9415;BME280;4746;35.664;139.738;2024-01-30T04:00:12;101486.13;;;22.19;20.67
9415;BME280;4746;35.664;139.738;2024-01-30T04:02:41;101480.06;;;22.61;20.18
9415;BME280;4746;35.664;139.738;2024-01-30T04:05:09;101478.97;;;23.08;19.81
9415;BME280;4746;35.664;139.738;2024-01-30T04:07:36;101475.97;;;23.58;19.49
9415;BME280;4746;35.664;139.738;2024-01-30T04:10:04;101481.38;;;23.85;19.18
9415;BME280;4746;35.664;139.738;2024-01-30T04:12:35;101482.78;;;23.97;18.79
9415;BME280;4746;35.664;139.738;2024-01-30T04:15:03;101479.78;;;24.12;18.65
9415;BME280;4746;35.664;139.738;2024-01-30T04:17:30;101474.78;;;24.03;18.56
9415;BME280;4746;35.664;139.738;2024-01-30T04:19:58;101464.78;;;24.17;18.89
9415;BME280;4746;35.664;139.738;2024-01-30T04:22:25;101468.44;;;25.77;17.60
9415;BME280;4746;35.664;139.738;2024-01-30T04:24:53;101457.38;;;28.45;15.69
9415;BME280;4746;35.664;139.738;2024-01-30T04:27:20;101457.44;;;30.49;14.43
9415;BME280;4746;35.664;139.738;2024-01-30T04:29:48;101438.47;;;31.76;14.17
9415;BME280;4746;35.664;139.738;2024-01-30T04:32:15;101445.69;;;32.98;13.42
9415;BME280;4746;35.664;139.738;2024-01-30T04:34:43;101442.53;;;33.83;13.42
9415;BME280;4746;35.664;139.738;2024-01-30T04:37:11;101430.38;;;34.54;12.89
9415;BME280;4746;35.664;139.738;2024-01-30T04:39:39;101429.91;;;35.30;12.36
9415;BME280;4746;35.664;139.738;2024-01-30T04:42:07;101421.47;;;35.92;11.55
9415;BME280;4746;35.664;139.738;2024-01-30T04:44:35;101422.34;;;36.36;11.19
9415;BME280;4746;35.664;139.738;2024-01-30T04:47:02;101421.16;;;36.82;11.20
9415;BME280;4746;35.664;139.738;2024-01-30T04:49:32;101417.22;;;37.59;10.97
9415;BME280;4746;35.664;139.738;2024-01-30T04:51:59;101418.00;;;37.91;10.25
9415;BME280;4746;35.664;139.738;2024-01-30T04:54:27;101422.56;;;38.30;10.61
9415;BME280;4746;35.664;139.738;2024-01-30T04:56:54;101416.09;;;38.32;9.85
9415;BME280;4746;35.664;139.738;2024-01-30T04:59:22;101409.13;;;38.60;9.77
9415;BME280;4746;35.664;139.738;2024-01-30T05:01:50;101408.19;;;38.80;9.60
9415;BME280;4746;35.664;139.738;2024-01-30T05:04:17;101400.44;;;38.96;9.42
9415;BME280;4746;35.664;139.738;2024-01-30T05:06:46;101405.94;;;39.22;9.13
9415;BME280;4746;35.664;139.738;2024-01-30T05:09:14;101414.00;;;39.51;9.39
9415;BME280;4746;35.664;139.738;2024-01-30T05:11:42;101415.09;;;39.67;8.79
9415;BME280;4746;35.664;139.738;2024-01-30T05:14:09;101420.16;;;39.70;8.24
9415;BME280;4746;35.664;139.738;2024-01-30T05:16:38;101419.59;;;39.67;8.57
9415;BME280;4746;35.664;139.738;2024-01-30T05:19:06;101404.00;;;39.98;8.41
9415;BME280;4746;35.664;139.738;2024-01-30T05:21:33;101409.09;;;39.92;8.43
9415;BME280;4746;35.664;139.738;2024-01-30T05:24:01;101392.72;;;39.76;8.09
9415;BME280;4746;35.664;139.738;2024-01-30T05:26:29;101396.09;;;39.97;8.20
9415;BME280;4746;35.664;139.738;2024-01-30T05:28:57;101396.91;;;40.34;8.36
9415;BME280;4746;35.664;139.738;2024-01-30T05:31:25;101398.28;;;40.64;7.95
9415;BME280;4746;35.664;139.738;2024-01-30T05:33:54;101386.97;;;40.88;8.00
9415;BME280;4746;35.664;139.738;2024-01-30T05:36:22;101390.09;;;41.01;7.32
9415;BME280;4746;35.664;139.738;2024-01-30T05:38:49;101388.78;;;41.22;7.38
9415;BME280;4746;35.664;139.738;2024-01-30T05:41:17;101388.34;;;41.69;7.43
9415;BME280;4746;35.664;139.738;2024-01-30T05:43:44;101387.28;;;41.62;7.82
9415;BME280;4746;35.664;139.738;2024-01-30T05:46:12;101386.72;;;41.84;7.11
9415;BME280;4746;35.664;139.738;2024-01-30T05:48:39;101386.94;;;41.65;7.18
9415;BME280;4746;35.664;139.738;2024-01-30T05:51:08;101392.66;;;41.62;7.79
9415;BME280;4746;35.664;139.738;2024-01-30T05:53:35;101394.88;;;41.67;7.46
9415;BME280;4746;35.664;139.738;2024-01-30T05:56:04;101397.31;;;41.86;7.62
9415;BME280;4746;35.664;139.738;2024-01-30T05:58:31;101387.81;;;41.74;7.37
9415;BME280;4746;35.664;139.738;2024-01-30T06:00:59;101389.06;;;41.79;7.40
9415;BME280;4746;35.664;139.738;2024-01-30T06:03:26;101383.78;;;41.95;7.20
9415;BME280;4746;35.664;139.738;2024-01-30T06:05:54;101385.88;;;42.09;7.18
9415;BME280;4746;35.664;139.738;2024-01-30T06:08:21;101388.81;;;41.73;7.36
9415;BME280;4746;35.664;139.738;2024-01-30T06:10:49;101386.16;;;41.30;7.08
9415;BME280;4746;35.664;139.738;2024-01-30T06:13:17;101380.78;;;41.30;7.49
9415;BME280;4746;35.664;139.738;2024-01-30T06:15:44;101382.03;;;41.18;7.42
9415;BME280;4746;35.664;139.738;2024-01-30T06:18:12;101375.84;;;41.43;7.57
9415;BME280;4746;35.664;139.738;2024-01-30T06:20:39;101375.34;;;41.73;7.65
9415;BME280;4746;35.664;139.738;2024-01-30T06:23:06;101380.50;;;41.84;7.64
9415;BME280;4746;35.664;139.738;2024-01-30T06:25:34;101378.31;;;41.54;7.54
9415;BME280;4746;35.664;139.738;2024-01-30T06:28:02;101372.19;;;41.26;8.04
9415;BME280;4746;35.664;139.738;2024-01-30T06:30:30;101372.34;;;41.25;8.09
9415;BME280;4746;35.664;139.738;2024-01-30T06:32:57;101373.06;;;41.10;8.17
9415;BME280;4746;35.664;139.738;2024-01-30T06:35:25;101379.19;;;41.02;8.22
9415;BME280;4746;35.664;139.738;2024-01-30T06:37:52;101377.88;;;41.06;7.99
9415;BME280;4746;35.664;139.738;2024-01-30T06:40:20;101380.47;;;40.98;7.89
9415;BME280;4746;35.664;139.738;2024-01-30T06:42:47;101379.25;;;40.75;7.99
9415;BME280;4746;35.664;139.738;2024-01-30T06:45:15;101389.50;;;40.62;7.54
9415;BME280;4746;35.664;139.738;2024-01-30T06:47:42;101384.34;;;40.25;7.87
9415;BME280;4746;35.664;139.738;2024-01-30T06:50:10;101384.31;;;39.98;8.47
9415;BME280;4746;35.664;139.738;2024-01-30T06:52:37;101391.06;;;39.66;8.18
9415;BME280;4746;35.664;139.738;2024-01-30T06:55:05;101389.69;;;39.52;8.36
9415;BME280;4746;35.664;139.738;2024-01-30T06:57:33;101404.06;;;39.42;8.74
9415;BME280;4746;35.664;139.738;2024-01-30T07:00:00;101400.47;;;39.14;8.24
9415;BME280;4746;35.664;139.738;2024-01-30T07:02:28;101398.00;;;38.25;8.46
9415;BME280;4746;35.664;139.738;2024-01-30T07:04:56;101403.13;;;37.57;8.67
9415;BME280;4746;35.664;139.738;2024-01-30T07:07:23;101411.97;;;37.17;9.40
9415;BME280;4746;35.664;139.738;2024-01-30T07:09:51;101404.78;;;37.18;9.11
9415;BME280;4746;35.664;139.738;2024-01-30T07:12:26;101408.69;;;37.14;9.33
9415;BME280;4746;35.664;139.738;2024-01-30T07:14:53;101411.06;;;36.32;9.59
9415;BME280;4746;35.664;139.738;2024-01-30T07:17:23;101425.50;;;34.23;10.19
9415;BME280;4746;35.664;139.738;2024-01-30T07:19:50;101412.53;;;32.23;11.60
9415;BME280;4746;35.664;139.738;2024-01-30T07:22:18;101423.81;;;30.51;12.46
9415;BME280;4746;35.664;139.738;2024-01-30T07:24:45;101427.00;;;29.08;13.12
9415;BME280;4746;35.664;139.738;2024-01-30T07:27:15;101428.00;;;27.96;13.99
9415;BME280;4746;35.664;139.738;2024-01-30T07:29:44;101437.63;;;26.94;14.84
9415;BME280;4746;35.664;139.738;2024-01-30T07:32:12;101440.34;;;26.01;15.28
9415;BME280;4746;35.664;139.738;2024-01-30T07:34:39;101438.06;;;25.18;15.72
9415;BME280;4746;35.664;139.738;2024-01-30T07:37:07;101452.63;;;24.45;16.79
9415;BME280;4746;35.664;139.738;2024-01-30T07:39:35;101459.78;;;23.78;17.46
9415;BME280;4746;35.664;139.738;2024-01-30T07:42:04;101464.69;;;23.21;17.43
9415;BME280;4746;35.664;139.738;2024-01-30T07:44:31;101458.88;;;22.73;17.71
9415;BME280;4746;35.664;139.738;2024-01-30T07:46:58;101467.75;;;22.24;18.24
9415;BME280;4746;35.664;139.738;2024-01-30T07:49:26;101466.00;;;21.80;18.65
9415;BME280;4746;35.664;139.738;2024-01-30T07:51:54;101464.13;;;21.40;18.97
9415;BME280;4746;35.664;139.738;2024-01-30T07:54:21;101475.13;;;21.04;19.48
9415;BME280;4746;35.664;139.738;2024-01-30T07:56:50;101477.38;;;20.70;19.28
9415;BME280;4746;35.664;139.738;2024-01-30T07:59:18;101483.88;;;20.37;20.08
9415;BME280;4746;35.664;139.738;2024-01-30T08:01:48;101485.97;;;20.06;20.19
9415;BME280;4746;35.664;139.738;2024-01-30T08:04:16;101492.22;;;19.87;20.27
9415;BME280;4746;35.664;139.738;2024-01-30T08:06:44;101483.84;;;19.56;20.76
9415;BME280;4746;35.664;139.738;2024-01-30T08:09:12;101498.81;;;19.29;20.94
9415;BME280;4746;35.664;139.738;2024-01-30T08:11:39;101498.09;;;19.06;21.16
9415;BME280;4746;35.664;139.738;2024-01-30T08:14:07;101505.16;;;18.85;21.49
9415;BME280;4746;35.664;139.738;2024-01-30T08:16:35;101511.34;;;18.68;21.64
9415;BME280;4746;35.664;139.738;2024-01-30T08:19:03;101509.69;;;18.52;21.95
9415;BME280;4746;35.664;139.738;2024-01-30T08:21:30;101505.41;;;18.36;22.11
9415;BME280;4746;35.664;139.738;2024-01-30T08:24:07;101505.47;;;18.21;22.39
9415;BME280;4746;35.664;139.738;2024-01-30T08:26:35;101513.25;;;18.06;22.47
9415;BME280;4746;35.664;139.738;2024-01-30T08:29:03;101503.78;;;17.96;22.27
9415;BME280;4746;35.664;139.738;2024-01-30T08:31:30;101496.91;;;17.85;22.78
9415;BME280;4746;35.664;139.738;2024-01-30T08:33:58;101508.16;;;17.76;22.67
9415;BME280;4746;35.664;139.738;2024-01-30T08:36:26;101501.25;;;17.66;22.92
9415;BME280;4746;35.664;139.738;2024-01-30T08:38:54;101505.59;;;17.58;22.95
9415;BME280;4746;35.664;139.738;2024-01-30T08:41:21;101515.09;;;17.50;23.21
9415;BME280;4746;35.664;139.738;2024-01-30T08:43:49;101513.34;;;17.43;23.16
9415;BME280;4746;35.664;139.738;2024-01-30T08:46:19;101522.88;;;17.37;23.15
9415;BME280;4746;35.664;139.738;2024-01-30T08:48:47;101528.91;;;17.30;23.51
9415;BME280;4746;35.664;139.738;2024-01-30T08:51:15;101524.53;;;17.22;23.71
9415;BME280;4746;35.664;139.738;2024-01-30T08:53:42;101524.53;;;17.16;24.02
9415;BME280;4746;35.664;139.738;2024-01-30T08:56:10;101519.34;;;17.10;23.89
9415;BME280;4746;35.664;139.738;2024-01-30T08:58:37;101523.66;;;17.14;23.69
9415;BME280;4746;35.664;139.738;2024-01-30T09:01:05;101524.50;;;16.99;24.11
9415;BME280;4746;35.664;139.738;2024-01-30T09:03:32;101535.75;;;17.00;24.30
9415;BME280;4746;35.664;139.738;2024-01-30T09:06:00;101533.97;;;16.96;24.27
9415;BME280;4746;35.664;139.738;2024-01-30T09:08:28;101533.09;;;16.92;24.39
9415;BME280;4746;35.664;139.738;2024-01-30T09:10:55;101539.16;;;16.87;24.57
9415;BME280;4746;35.664;139.738;2024-01-30T09:13:25;101539.97;;;16.83;24.29
9415;BME280;4746;35.664;139.738;2024-01-30T09:15:53;101535.66;;;16.79;25.14
9415;BME280;4746;35.664;139.738;2024-01-30T09:18:21;101532.19;;;16.68;25.37
9415;BME280;4746;35.664;139.738;2024-01-30T09:20:49;101543.38;;;16.61;25.60
9415;BME280;4746;35.664;139.738;2024-01-30T09:23:16;101540.81;;;16.64;25.77
9415;BME280;4746;35.664;139.738;2024-01-30T09:25:45;101547.66;;;16.53;25.34
9415;BME280;4746;35.664;139.738;2024-01-30T09:28:13;101545.91;;;16.46;26.02
9415;BME280;4746;35.664;139.738;2024-01-30T09:30:40;101557.06;;;16.41;26.36
9415;BME280;4746;35.664;139.738;2024-01-30T09:33:08;101559.63;;;16.35;26.17
9415;BME280;4746;35.664;139.738;2024-01-30T09:35:39;101563.09;;;16.35;26.39
9415;BME280;4746;35.664;139.738;2024-01-30T09:38:06;101565.66;;;16.31;26.35
9415;BME280;4746;35.664;139.738;2024-01-30T09:40:34;101563.00;;;16.26;26.33
9415;BME280;4746;35.664;139.738;2024-01-30T09:43:01;101564.69;;;16.23;25.76
9415;BME280;4746;35.664;139.738;2024-01-30T09:45:33;101573.31;;;16.20;25.83
9415;BME280;4746;35.664;139.738;2024-01-30T09:48:02;101574.97;;;16.06;25.92
9415;BME280;4746;35.664;139.738;2024-01-30T09:50:33;101566.38;;;16.10;25.66
9415;BME280;4746;35.664;139.738;2024-01-30T09:53:04;101568.06;;;16.08;26.14
9415;BME280;4746;35.664;139.738;2024-01-30T09:55:33;101566.31;;;16.07;26.06
9415;BME280;4746;35.664;139.738;2024-01-30T09:58:02;101555.97;;;16.04;27.00
9415;BME280;4746;35.664;139.738;2024-01-30T10:00:30;101569.75;;;16.00;26.27
9415;BME280;4746;35.664;139.738;2024-01-30T10:03:03;101574.03;;;15.98;25.96
9415;BME280;4746;35.664;139.738;2024-01-30T10:05:33;101586.94;;;15.96;26.25
9415;BME280;4746;35.664;139.738;2024-01-30T10:08:07;101584.34;;;15.93;25.98
9415;BME280;4746;35.664;139.738;2024-01-30T10:10:35;101597.22;;;15.90;26.27
9415;BME280;4746;35.664;139.738;2024-01-30T10:13:03;101595.47;;;15.83;26.30
9415;BME280;4746;35.664;139.738;2024-01-30T10:15:31;101593.63;;;15.73;26.18
9415;BME280;4746;35.664;139.738;2024-01-30T10:17:58;101594.47;;;15.70;25.28
9415;BME280;4746;35.664;139.738;2024-01-30T10:20:26;101591.88;;;15.66;25.63
9415;BME280;4746;35.664;139.738;2024-01-30T10:22:54;101593.53;;;15.61;26.10
9415;BME280;4746;35.664;139.738;2024-01-30T10:25:23;101591.84;;;15.60;26.65
9415;BME280;4746;35.664;139.738;2024-01-30T10:27:56;101598.72;;;15.61;27.78
9415;BME280;4746;35.664;139.738;2024-01-30T10:30:25;101600.44;;;15.62;28.38
9415;BME280;4746;35.664;139.738;2024-01-30T10:32:52;101606.50;;;15.65;29.12
9415;BME280;4746;35.664;139.738;2024-01-30T10:35:20;101603.97;;;15.71;29.76
9415;BME280;4746;35.664;139.738;2024-01-30T10:37:51;101607.50;;;15.84;30.17
9415;BME280;4746;35.664;139.738;2024-01-30T10:40:28;101611.94;;;15.97;31.18
9415;BME280;4746;35.664;139.738;2024-01-30T10:42:57;101614.56;;;16.02;31.08
9415;BME280;4746;35.664;139.738;2024-01-30T10:45:28;101613.75;;;16.11;31.72
9415;BME280;4746;35.664;139.738;2024-01-30T10:48:00;101626.75;;;16.18;31.30
9415;BME280;4746;35.664;139.738;2024-01-30T10:50:31;101618.16;;;16.22;31.58
9415;BME280;4746;35.664;139.738;2024-01-30T10:53:00;101600.94;;;16.26;31.60
9415;BME280;4746;35.664;139.738;2024-01-30T10:55:30;101607.88;;;16.28;31.71
9415;BME280;4746;35.664;139.738;2024-01-30T10:57:58;101604.44;;;16.32;32.02
9415;BME280;4746;35.664;139.738;2024-01-30T11:00:26;101594.09;;;16.32;32.17
9415;BME280;4746;35.664;139.738;2024-01-30T11:02:56;101589.81;;;16.36;32.78
9415;BME280;4746;35.664;139.738;2024-01-30T11:05:27;101588.97;;;16.35;32.70
9415;BME280;4746;35.664;139.738;2024-01-30T11:07:56;101594.94;;;16.27;33.24
9415;BME280;4746;35.664;139.738;2024-01-30T11:10:26;101589.78;;;16.30;32.95
9415;BME280;4746;35.664;139.738;2024-01-30T11:12:53;101585.44;;;16.24;33.61
9415;BME280;4746;35.664;139.738;2024-01-30T11:15:21;101577.63;;;16.21;33.88
9415;BME280;4746;35.664;139.738;2024-01-30T11:17:52;101575.91;;;16.20;34.07
9415;BME280;4746;35.664;139.738;2024-01-30T11:20:29;101577.63;;;16.18;34.25
9415;BME280;4746;35.664;139.738;2024-01-30T11:23:00;101576.72;;;16.13;34.40
9415;BME280;4746;35.664;139.738;2024-01-30T11:25:34;101568.06;;;16.10;34.71
9415;BME280;4746;35.664;139.738;2024-01-30T11:28:03;101568.91;;;16.06;35.05
9415;BME280;4746;35.664;139.738;2024-01-30T11:30:32;101562.88;;;16.05;35.25
9415;BME280;4746;35.664;139.738;2024-01-30T11:33:02;101571.47;;;16.01;35.44
9415;BME280;4746;35.664;139.738;2024-01-30T11:35:41;101568.03;;;15.99;35.75
9415;BME280;4746;35.664;139.738;2024-01-30T11:38:12;101562.81;;;15.94;36.05
9415;BME280;4746;35.664;139.738;2024-01-30T11:40:41;101581.75;;;15.93;36.34
9415;BME280;4746;35.664;139.738;2024-01-30T11:43:09;101571.41;;;15.93;36.53
9415;BME280;4746;35.664;139.738;2024-01-30T11:45:37;101578.28;;;15.91;36.51
9415;BME280;4746;35.664;139.738;2024-01-30T11:48:08;101574.84;;;15.89;36.87
9415;BME280;4746;35.664;139.738;2024-01-30T11:50:39;101581.72;;;15.90;36.95
9415;BME280;4746;35.664;139.738;2024-01-30T11:53:11;101575.69;;;15.86;36.86
9415;BME280;4746;35.664;139.738;2024-01-30T11:55:39;101570.56;;;15.94;36.75
9415;BME280;4746;35.664;139.738;2024-01-30T11:58:07;101580.91;;;15.92;36.72
9415;BME280;4746;35.664;139.738;2024-01-30T12:00:35;101582.59;;;15.93;36.33
9415;BME280;4746;35.664;139.738;2024-01-30T12:03:03;101582.53;;;15.83;36.50
9415;BME280;4746;35.664;139.738;2024-01-30T12:05:33;101583.34;;;15.79;36.63
9415;BME280;4746;35.664;139.738;2024-01-30T12:08:01;101570.44;;;15.77;36.63
9415;BME280;4746;35.664;139.738;2024-01-30T12:10:28;101579.03;;;15.73;36.84
9415;BME280;4746;35.664;139.738;2024-01-30T12:12:56;101568.69;;;15.72;36.60
9415;BME280;4746;35.664;139.738;2024-01-30T12:15:25;101573.81;;;15.69;36.53
9415;BME280;4746;35.664;139.738;2024-01-30T12:18:05;101575.44;;;15.61;36.41
9415;BME280;4746;35.664;139.738;2024-01-30T12:20:39;101576.25;;;15.52;36.54
9415;BME280;4746;35.664;139.738;2024-01-30T12:23:06;101576.22;;;15.49;36.73
9415;BME280;4746;35.664;139.738;2024-01-30T12:25:34;101580.63;;;15.59;36.35
9415;BME280;4746;35.664;139.738;2024-01-30T12:28:04;101572.06;;;15.66;36.26
9415;BME280;4746;35.664;139.738;2024-01-30T12:30:35;101578.97;;;15.69;35.96
9415;BME280;4746;35.664;139.738;2024-01-30T12:33:02;101579.78;;;15.62;35.63
9415;BME280;4746;35.664;139.738;2024-01-30T12:35:32;101582.34;;;15.60;35.56
9415;BME280;4746;35.664;139.738;2024-01-30T12:37:59;101586.66;;;15.60;35.87
9415;BME280;4746;35.664;139.738;2024-01-30T12:40:27;101578.03;;;15.61;35.38
9415;BME280;4746;35.664;139.738;2024-01-30T12:42:55;101579.75;;;15.59;35.56
9415;BME280;4746;35.664;139.738;2024-01-30T12:45:23;101572.84;;;15.58;35.51
9415;BME280;4746;35.664;139.738;2024-01-30T12:47:51;101571.97;;;15.57;35.30
9415;BME280;4746;35.664;139.738;2024-01-30T12:50:18;101579.72;;;15.56;35.66
9415;BME280;4746;35.664;139.738;2024-01-30T12:52:46;101565.94;;;15.54;35.72
9415;BME280;4746;35.664;139.738;2024-01-30T12:55:14;101565.91;;;15.51;35.65
9415;BME280;4746;35.664;139.738;2024-01-30T12:57:42;101575.34;;;15.44;35.30